Ansonia, CT (06401)

10:26 AM EDT on October 21, 2014 (GMT -0400)
Hilltop by Sunnyside School | Change Station
CLOSE
Current Station
Personal Weather Station
Location: Shelton, CT
Elevation: 13 m
Nearby Weather Stations

Elev 13 m 41.32 °N, 73.09 °W | Updated 8 seconds ago

Mostly Cloudy
Mostly Cloudy
15.6 °C
Feels Like 15.6 °C
N
11.3
Wind Variable Wind from SE
Gusts 14.5 km/h

Today
High -- | Low -- °C
--% Chance of Precip.
Yesterday
High -- | Low -- °C
Precip. -- mm
7:10 AM 6:02 PM
Waning Crescent, 5% visible
Pressure 1013 hPa
Visibility 16.1 kilometers
Clouds Scattered Clouds 2590 m
Mostly Cloudy 3657 m
Dew Point 11 °C
Humidity 74%
Rainfall 0 mm
Snow Depth Not available.
UV 1 out of 12
Pollen .30 out of 12
Ozone Good
PM2.5 Moderate
Flu Activity Sporadic
METAR KOXC 211350Z 11006KT 10SM SCT085 BKN120 12/07 A2992

More Conditions Fewer Conditions

Pressure 1013 hPa
Visibility 16.1 kilometers
Clouds Scattered Clouds 2590 m
Mostly Cloudy 3657 m
Dew Point 11 °C
Humidity 74%
Rainfall 0 mm
Snow Depth Not available.
UV 1 out of 12
Pollen .30 out of 12
Ozone Good
PM2.5 Moderate
Flu Activity Sporadic
METAR KOXC 211350Z 11006KT 10SM SCT085 BKN120 12/07 A2992

More Conditions Fewer Conditions

10-Day Weather Forecast

Almanac

Astronomy

Oct. 21, 2014 Rise Set
Actual Time 7:10 AM EDT 6:02 PM EDT
Civil Twilight 6:42 AM EDT 6:30 PM EDT
Nautical Twilight 6:10 AM EDT 7:02 PM EDT
Astronomical Twilight 5:38 AM EDT 7:34 PM EDT
Moon 4:51 AM EDT 4:56 PM EDT
Length of Visible Light 11h 47m
Length of Day
10h 51m
Tomorrow will be 2m 36s shorter.
Waning Crescent, 5% of the Moon is Illuminated
Today
Waning Crescent
Oct 23
New
Oct 30
First Quarter
Nov 6
Full
Nov 14
Last Quarter

Today's Extremes

State Highs State Lows

Community

WunderPhotos

Upload Photos

1,763,676 photos uploaded!

Nearby

Air Quality

  Air Quality AQ Index Pollutant
Yesterday Good
PM10
Yesterday Good
OZONE
Current Moderate
PM2.5
Current Good
OZONE

Snow Depth

Station Depth Elevation
No new snow has been reported.

Earthquake Activity

City Distance Mag. Time & Date
No recent earthquake activity has been reported nearby.
Minimum magnitude displayed is 2.5.

Coastal Water Temperatures

Place Temperature
Bridgeport, CT 16.7 °C

Nearby Weather Stations